sensor_id;sensor_type;location;lat;lon;timestamp;P1;durP1;ratioP1;P2;durP2;ratioP2
39218;SDS011;24934;52.752;6.964;2022-07-30T00:00:00;10.73;;;9.93;;
39218;SDS011;24934;52.752;6.964;2022-07-30T00:02:26;9.63;;;8.73;;
39218;SDS011;24934;52.752;6.964;2022-07-30T00:04:54;9.73;;;9.13;;
39218;SDS011;24934;52.752;6.964;2022-07-30T00:07:19;14.35;;;8.65;;
39218;SDS011;24934;52.752;6.964;2022-07-30T00:09:45;10.13;;;9.43;;
39218;SDS011;24934;52.752;6.964;2022-07-30T00:12:10;9.18;;;8.57;;
39218;SDS011;24934;52.752;6.964;2022-07-30T00:14:36;10.30;;;9.60;;
39218;SDS011;24934;52.752;6.964;2022-07-30T00:17:03;11.07;;;10.07;;
39218;SDS011;24934;52.752;6.964;2022-07-30T00:19:29;9.25;;;8.75;;
39218;SDS011;24934;52.752;6.964;2022-07-30T00:21:54;11.30;;;10.50;;
39218;SDS011;24934;52.752;6.964;2022-07-30T00:24:20;9.98;;;9.10;;
39218;SDS011;24934;52.752;6.964;2022-07-30T00:26:58;11.65;;;10.80;;
39218;SDS011;24934;52.752;6.964;2022-07-30T00:29:23;10.20;;;9.50;;
39218;SDS011;24934;52.752;6.964;2022-07-30T00:31:50;9.77;;;8.35;;
39218;SDS011;24934;52.752;6.964;2022-07-30T00:34:16;10.00;;;9.40;;
39218;SDS011;24934;52.752;6.964;2022-07-30T00:36:41;10.23;;;9.57;;
39218;SDS011;24934;52.752;6.964;2022-07-30T00:39:07;9.88;;;9.18;;
39218;SDS011;24934;52.752;6.964;2022-07-30T00:41:32;10.63;;;8.98;;
39218;SDS011;24934;52.752;6.964;2022-07-30T00:44:19;9.32;;;8.73;;
39218;SDS011;24934;52.752;6.964;2022-07-30T00:46:44;10.10;;;9.50;;
39218;SDS011;24934;52.752;6.964;2022-07-30T00:49:10;10.43;;;9.63;;
39218;SDS011;24934;52.752;6.964;2022-07-30T00:51:35;9.98;;;9.38;;
39218;SDS011;24934;52.752;6.964;2022-07-30T00:54:01;10.70;;;10.00;;
39218;SDS011;24934;52.752;6.964;2022-07-30T00:56:29;10.48;;;9.88;;
39218;SDS011;24934;52.752;6.964;2022-07-30T00:58:55;11.02;;;10.35;;
39218;SDS011;24934;52.752;6.964;2022-07-30T01:01:20;11.32;;;10.43;;
39218;SDS011;24934;52.752;6.964;2022-07-30T01:03:46;9.68;;;9.07;;
39218;SDS011;24934;52.752;6.964;2022-07-30T01:06:12;9.93;;;9.25;;
39218;SDS011;24934;52.752;6.964;2022-07-30T01:08:37;10.10;;;9.48;;
39218;SDS011;24934;52.752;6.964;2022-07-30T01:11:03;10.13;;;9.43;;
39218;SDS011;24934;52.752;6.964;2022-07-30T01:13:28;10.50;;;9.80;;
39218;SDS011;24934;52.752;6.964;2022-07-30T01:15:54;9.45;;;8.85;;
39218;SDS011;24934;52.752;6.964;2022-07-30T01:18:23;10.32;;;9.63;;
39218;SDS011;24934;52.752;6.964;2022-07-30T01:21:10;9.95;;;9.35;;
39218;SDS011;24934;52.752;6.964;2022-07-30T01:23:43;9.98;;;9.38;;
39218;SDS011;24934;52.752;6.964;2022-07-30T01:26:15;10.85;;;10.15;;
39218;SDS011;24934;52.752;6.964;2022-07-30T01:28:52;11.75;;;10.88;;
39218;SDS011;24934;52.752;6.964;2022-07-30T01:31:22;11.68;;;10.50;;
39218;SDS011;24934;52.752;6.964;2022-07-30T01:33:50;11.13;;;10.20;;
39218;SDS011;24934;52.752;6.964;2022-07-30T01:36:17;11.15;;;10.45;;
39218;SDS011;24934;52.752;6.964;2022-07-30T01:38:46;11.02;;;10.27;;
39218;SDS011;24934;52.752;6.964;2022-07-30T01:41:14;10.88;;;10.18;;
39218;SDS011;24934;52.752;6.964;2022-07-30T01:43:40;10.45;;;9.75;;
39218;SDS011;24934;52.752;6.964;2022-07-30T01:46:08;10.75;;;9.98;;
39218;SDS011;24934;52.752;6.964;2022-07-30T01:48:36;9.52;;;8.93;;
39218;SDS011;24934;52.752;6.964;2022-07-30T01:51:05;10.73;;;10.02;;
39218;SDS011;24934;52.752;6.964;2022-07-30T01:53:31;10.30;;;9.70;;
39218;SDS011;24934;52.752;6.964;2022-07-30T01:56:01;10.43;;;9.82;;
39218;SDS011;24934;52.752;6.964;2022-07-30T01:58:30;10.90;;;10.15;;
39218;SDS011;24934;52.752;6.964;2022-07-30T02:00:59;12.02;;;10.88;;
39218;SDS011;24934;52.752;6.964;2022-07-30T02:03:25;12.48;;;11.68;;
39218;SDS011;24934;52.752;6.964;2022-07-30T02:06:07;11.38;;;10.55;;
39218;SDS011;24934;52.752;6.964;2022-07-30T02:08:41;11.25;;;10.55;;
39218;SDS011;24934;52.752;6.964;2022-07-30T02:11:15;10.90;;;10.20;;
39218;SDS011;24934;52.752;6.964;2022-07-30T02:14:01;11.77;;;10.90;;
39218;SDS011;24934;52.752;6.964;2022-07-30T02:16:35;10.57;;;9.88;;
39218;SDS011;24934;52.752;6.964;2022-07-30T02:19:13;11.75;;;10.95;;
39218;SDS011;24934;52.752;6.964;2022-07-30T02:21:46;10.52;;;9.82;;
39218;SDS011;24934;52.752;6.964;2022-07-30T02:24:21;10.70;;;10.00;;
39218;SDS011;24934;52.752;6.964;2022-07-30T02:26:53;10.90;;;9.77;;
39218;SDS011;24934;52.752;6.964;2022-07-30T02:29:23;9.27;;;8.77;;
39218;SDS011;24934;52.752;6.964;2022-07-30T02:31:49;11.38;;;10.30;;
39218;SDS011;24934;52.752;6.964;2022-07-30T02:34:18;10.48;;;9.68;;
39218;SDS011;24934;52.752;6.964;2022-07-30T02:36:47;12.15;;;11.25;;
39218;SDS011;24934;52.752;6.964;2022-07-30T02:39:13;10.70;;;10.00;;
39218;SDS011;24934;52.752;6.964;2022-07-30T02:41:40;11.07;;;10.25;;
39218;SDS011;24934;52.752;6.964;2022-07-30T02:44:08;11.25;;;10.50;;
39218;SDS011;24934;52.752;6.964;2022-07-30T02:46:35;11.93;;;10.85;;
39218;SDS011;24934;52.752;6.964;2022-07-30T02:49:03;11.30;;;10.38;;
39218;SDS011;24934;52.752;6.964;2022-07-30T02:51:30;11.10;;;10.40;;
39218;SDS011;24934;52.752;6.964;2022-07-30T02:53:57;10.77;;;10.07;;
39218;SDS011;24934;52.752;6.964;2022-07-30T02:56:24;10.48;;;9.77;;
39218;SDS011;24934;52.752;6.964;2022-07-30T02:58:52;12.98;;;12.05;;
39218;SDS011;24934;52.752;6.964;2022-07-30T03:01:20;11.68;;;10.88;;
39218;SDS011;24934;52.752;6.964;2022-07-30T03:03:48;10.13;;;9.52;;
39218;SDS011;24934;52.752;6.964;2022-07-30T03:06:15;12.73;;;11.48;;
39218;SDS011;24934;52.752;6.964;2022-07-30T03:08:42;11.27;;;10.38;;
39218;SDS011;24934;52.752;6.964;2022-07-30T03:11:10;11.52;;;10.63;;
39218;SDS011;24934;52.752;6.964;2022-07-30T03:13:37;11.63;;;10.38;;
39218;SDS011;24934;52.752;6.964;2022-07-30T03:16:03;11.70;;;10.77;;
39218;SDS011;24934;52.752;6.964;2022-07-30T03:18:33;10.57;;;9.88;;
39218;SDS011;24934;52.752;6.964;2022-07-30T03:21:00;10.10;;;9.50;;
39218;SDS011;24934;52.752;6.964;2022-07-30T03:23:27;10.30;;;9.70;;
39218;SDS011;24934;52.752;6.964;2022-07-30T03:26:01;10.63;;;9.98;;
39218;SDS011;24934;52.752;6.964;2022-07-30T03:28:30;11.20;;;10.50;;
39218;SDS011;24934;52.752;6.964;2022-07-30T03:30:58;11.55;;;10.75;;
39218;SDS011;24934;52.752;6.964;2022-07-30T03:33:24;11.95;;;11.15;;
39218;SDS011;24934;52.752;6.964;2022-07-30T03:35:51;11.60;;;10.90;;
39218;SDS011;24934;52.752;6.964;2022-07-30T03:38:17;10.48;;;9.85;;
39218;SDS011;24934;52.752;6.964;2022-07-30T03:40:44;9.77;;;9.18;;
39218;SDS011;24934;52.752;6.964;2022-07-30T03:43:10;11.40;;;10.20;;
39218;SDS011;24934;52.752;6.964;2022-07-30T03:45:37;9.57;;;9.02;;
39218;SDS011;24934;52.752;6.964;2022-07-30T03:48:08;10.60;;;9.90;;
39218;SDS011;24934;52.752;6.964;2022-07-30T03:50:36;9.88;;;9.27;;
39218;SDS011;24934;52.752;6.964;2022-07-30T03:53:12;10.00;;;9.30;;
39218;SDS011;24934;52.752;6.964;2022-07-30T03:55:38;9.65;;;8.98;;
39218;SDS011;24934;52.752;6.964;2022-07-30T03:58:05;8.85;;;8.25;;
39218;SDS011;24934;52.752;6.964;2022-07-30T04:00:40;9.43;;;8.80;;
39218;SDS011;24934;52.752;6.964;2022-07-30T04:03:06;8.25;;;7.70;;
39218;SDS011;24934;52.752;6.964;2022-07-30T04:05:31;7.88;;;7.38;;
39218;SDS011;24934;52.752;6.964;2022-07-30T04:07:57;7.60;;;6.97;;
39218;SDS011;24934;52.752;6.964;2022-07-30T04:10:22;8.98;;;8.30;;
39218;SDS011;24934;52.752;6.964;2022-07-30T04:12:48;8.02;;;7.50;;
39218;SDS011;24934;52.752;6.964;2022-07-30T04:15:14;8.45;;;7.68;;
39218;SDS011;24934;52.752;6.964;2022-07-30T04:17:40;8.60;;;7.90;;
39218;SDS011;24934;52.752;6.964;2022-07-30T04:20:13;7.88;;;7.18;;
39218;SDS011;24934;52.752;6.964;2022-07-30T04:22:48;7.93;;;7.43;;
39218;SDS011;24934;52.752;6.964;2022-07-30T04:25:18;8.02;;;7.43;;
39218;SDS011;24934;52.752;6.964;2022-07-30T04:27:45;8.60;;;8.10;;
39218;SDS011;24934;52.752;6.964;2022-07-30T04:30:12;9.30;;;8.70;;
39218;SDS011;24934;52.752;6.964;2022-07-30T04:32:38;8.75;;;8.25;;
39218;SDS011;24934;52.752;6.964;2022-07-30T04:35:04;8.68;;;7.97;;
39218;SDS011;24934;52.752;6.964;2022-07-30T04:37:30;9.25;;;8.55;;
39218;SDS011;24934;52.752;6.964;2022-07-30T04:39:58;8.95;;;8.25;;
39218;SDS011;24934;52.752;6.964;2022-07-30T04:42:25;8.18;;;7.68;;
39218;SDS011;24934;52.752;6.964;2022-07-30T04:44:55;8.80;;;8.23;;
39218;SDS011;24934;52.752;6.964;2022-07-30T04:47:21;8.30;;;7.80;;
39218;SDS011;24934;52.752;6.964;2022-07-30T04:49:48;10.18;;;9.43;;
39218;SDS011;24934;52.752;6.964;2022-07-30T04:52:17;9.50;;;8.70;;
39218;SDS011;24934;52.752;6.964;2022-07-30T04:54:50;8.45;;;7.65;;
39218;SDS011;24934;52.752;6.964;2022-07-30T04:57:20;8.23;;;7.72;;
39218;SDS011;24934;52.752;6.964;2022-07-30T04:59:46;8.65;;;8.02;;
39218;SDS011;24934;52.752;6.964;2022-07-30T05:02:12;8.88;;;8.02;;
39218;SDS011;24934;52.752;6.964;2022-07-30T05:04:42;8.23;;;7.55;;
39218;SDS011;24934;52.752;6.964;2022-07-30T05:07:09;8.15;;;7.65;;
39218;SDS011;24934;52.752;6.964;2022-07-30T05:09:37;7.32;;;6.82;;
39218;SDS011;24934;52.752;6.964;2022-07-30T05:12:04;8.02;;;7.35;;
39218;SDS011;24934;52.752;6.964;2022-07-30T05:14:29;6.93;;;6.53;;
39218;SDS011;24934;52.752;6.964;2022-07-30T05:16:55;7.82;;;7.22;;
39218;SDS011;24934;52.752;6.964;2022-07-30T05:19:21;8.10;;;7.43;;
39218;SDS011;24934;52.752;6.964;2022-07-30T05:21:47;7.25;;;6.75;;
39218;SDS011;24934;52.752;6.964;2022-07-30T05:24:13;7.40;;;6.90;;
39218;SDS011;24934;52.752;6.964;2022-07-30T05:26:42;7.85;;;6.68;;
39218;SDS011;24934;52.752;6.964;2022-07-30T05:29:08;7.72;;;7.22;;
39218;SDS011;24934;52.752;6.964;2022-07-30T05:31:33;6.85;;;6.45;;
39218;SDS011;24934;52.752;6.964;2022-07-30T05:33:59;8.25;;;7.65;;
39218;SDS011;24934;52.752;6.964;2022-07-30T05:36:25;8.27;;;7.68;;
39218;SDS011;24934;52.752;6.964;2022-07-30T05:38:51;8.52;;;7.85;;
39218;SDS011;24934;52.752;6.964;2022-07-30T05:41:19;9.00;;;8.40;;
39218;SDS011;24934;52.752;6.964;2022-07-30T05:43:45;8.60;;;8.00;;
39218;SDS011;24934;52.752;6.964;2022-07-30T05:46:11;8.98;;;8.38;;
39218;SDS011;24934;52.752;6.964;2022-07-30T05:48:36;7.13;;;6.70;;
39218;SDS011;24934;52.752;6.964;2022-07-30T05:51:03;7.93;;;7.43;;
39218;SDS011;24934;52.752;6.964;2022-07-30T05:53:29;7.85;;;7.35;;
39218;SDS011;24934;52.752;6.964;2022-07-30T05:55:55;8.32;;;7.72;;
39218;SDS011;24934;52.752;6.964;2022-07-30T05:58:21;8.82;;;8.13;;
39218;SDS011;24934;52.752;6.964;2022-07-30T06:00:46;8.15;;;7.65;;
39218;SDS011;24934;52.752;6.964;2022-07-30T06:03:12;7.32;;;6.88;;
39218;SDS011;24934;52.752;6.964;2022-07-30T06:05:47;8.02;;;7.43;;
39218;SDS011;24934;52.752;6.964;2022-07-30T06:08:13;7.53;;;7.03;;
39218;SDS011;24934;52.752;6.964;2022-07-30T06:10:38;7.88;;;7.28;;
39218;SDS011;24934;52.752;6.964;2022-07-30T06:13:04;7.95;;;7.45;;
39218;SDS011;24934;52.752;6.964;2022-07-30T06:15:29;7.13;;;6.63;;
39218;SDS011;24934;52.752;6.964;2022-07-30T06:17:55;6.57;;;6.18;;
39218;SDS011;24934;52.752;6.964;2022-07-30T06:20:21;7.88;;;7.28;;
39218;SDS011;24934;52.752;6.964;2022-07-30T06:22:46;6.32;;;5.93;;
39218;SDS011;24934;52.752;6.964;2022-07-30T06:25:12;6.70;;;6.30;;
39218;SDS011;24934;52.752;6.964;2022-07-30T06:27:37;6.93;;;6.53;;
39218;SDS011;24934;52.752;6.964;2022-07-30T06:30:07;17.00;;;6.05;;
39218;SDS011;24934;52.752;6.964;2022-07-30T06:32:33;9.15;;;6.15;;
39218;SDS011;24934;52.752;6.964;2022-07-30T06:35:03;6.22;;;5.82;;
39218;SDS011;24934;52.752;6.964;2022-07-30T06:37:29;7.00;;;6.45;;
39218;SDS011;24934;52.752;6.964;2022-07-30T06:39:55;6.65;;;6.15;;
39218;SDS011;24934;52.752;6.964;2022-07-30T06:42:20;6.05;;;5.70;;
39218;SDS011;24934;52.752;6.964;2022-07-30T06:44:46;5.82;;;5.45;;
39218;SDS011;24934;52.752;6.964;2022-07-30T06:47:12;8.75;;;6.40;;
39218;SDS011;24934;52.752;6.964;2022-07-30T06:49:39;6.68;;;6.18;;
39218;SDS011;24934;52.752;6.964;2022-07-30T06:52:05;5.93;;;5.57;;
39218;SDS011;24934;52.752;6.964;2022-07-30T06:54:31;6.07;;;5.68;;
39218;SDS011;24934;52.752;6.964;2022-07-30T06:56:57;6.10;;;5.70;;
39218;SDS011;24934;52.752;6.964;2022-07-30T06:59:25;6.53;;;6.03;;
39218;SDS011;24934;52.752;6.964;2022-07-30T07:01:51;5.90;;;5.55;;
39218;SDS011;24934;52.752;6.964;2022-07-30T07:04:18;6.18;;;5.78;;
39218;SDS011;24934;52.752;6.964;2022-07-30T07:06:43;5.57;;;5.20;;
39218;SDS011;24934;52.752;6.964;2022-07-30T07:09:09;6.95;;;5.68;;
39218;SDS011;24934;52.752;6.964;2022-07-30T07:11:35;6.78;;;5.90;;
39218;SDS011;24934;52.752;6.964;2022-07-30T07:14:00;5.75;;;5.35;;
39218;SDS011;24934;52.752;6.964;2022-07-30T07:16:26;10.02;;;5.75;;
39218;SDS011;24934;52.752;6.964;2022-07-30T07:18:52;6.10;;;5.70;;
39218;SDS011;24934;52.752;6.964;2022-07-30T07:21:20;5.90;;;5.53;;
39218;SDS011;24934;52.752;6.964;2022-07-30T07:23:47;5.90;;;5.50;;
39218;SDS011;24934;52.752;6.964;2022-07-30T07:26:13;7.00;;;6.50;;
39218;SDS011;24934;52.752;6.964;2022-07-30T07:28:39;7.03;;;6.43;;
39218;SDS011;24934;52.752;6.964;2022-07-30T07:31:05;6.55;;;6.05;;
39218;SDS011;24934;52.752;6.964;2022-07-30T07:33:32;6.95;;;6.45;;
39218;SDS011;24934;52.752;6.964;2022-07-30T07:36:00;7.57;;;6.90;;
39218;SDS011;24934;52.752;6.964;2022-07-30T07:38:31;7.40;;;6.90;;
39218;SDS011;24934;52.752;6.964;2022-07-30T07:40:57;7.70;;;7.05;;
39218;SDS011;24934;52.752;6.964;2022-07-30T07:43:22;6.75;;;6.35;;
39218;SDS011;24934;52.752;6.964;2022-07-30T07:45:49;7.25;;;6.78;;
39218;SDS011;24934;52.752;6.964;2022-07-30T07:48:15;8.00;;;7.45;;
39218;SDS011;24934;52.752;6.964;2022-07-30T07:50:42;7.40;;;6.80;;
39218;SDS011;24934;52.752;6.964;2022-07-30T07:53:07;6.65;;;6.18;;
39218;SDS011;24934;52.752;6.964;2022-07-30T07:55:36;7.13;;;6.63;;
39218;SDS011;24934;52.752;6.964;2022-07-30T07:58:02;6.90;;;6.45;;
39218;SDS011;24934;52.752;6.964;2022-07-30T08:00:28;7.10;;;6.63;;
39218;SDS011;24934;52.752;6.964;2022-07-30T08:02:53;7.18;;;6.65;;
39218;SDS011;24934;52.752;6.964;2022-07-30T08:05:20;7.47;;;6.97;;
39218;SDS011;24934;52.752;6.964;2022-07-30T08:07:48;7.00;;;6.53;;
39218;SDS011;24934;52.752;6.964;2022-07-30T08:10:14;6.75;;;6.35;;
39218;SDS011;24934;52.752;6.964;2022-07-30T08:12:40;8.55;;;7.13;;
39218;SDS011;24934;52.752;6.964;2022-07-30T08:15:06;7.88;;;7.38;;
39218;SDS011;24934;52.752;6.964;2022-07-30T08:17:42;7.55;;;6.97;;
39218;SDS011;24934;52.752;6.964;2022-07-30T08:20:09;6.90;;;6.40;;
39218;SDS011;24934;52.752;6.964;2022-07-30T08:22:36;7.85;;;7.32;;
39218;SDS011;24934;52.752;6.964;2022-07-30T08:25:05;7.95;;;7.45;;
39218;SDS011;24934;52.752;6.964;2022-07-30T08:27:31;9.23;;;8.63;;
39218;SDS011;24934;52.752;6.964;2022-07-30T08:29:57;7.80;;;7.30;;
39218;SDS011;24934;52.752;6.964;2022-07-30T08:32:25;8.75;;;7.97;;
39218;SDS011;24934;52.752;6.964;2022-07-30T08:34:51;8.00;;;7.50;;
39218;SDS011;24934;52.752;6.964;2022-07-30T08:37:16;10.18;;;7.93;;
39218;SDS011;24934;52.752;6.964;2022-07-30T08:39:42;8.15;;;7.60;;
39218;SDS011;24934;52.752;6.964;2022-07-30T08:42:07;8.50;;;7.97;;
39218;SDS011;24934;52.752;6.964;2022-07-30T08:44:34;9.45;;;8.85;;
39218;SDS011;24934;52.752;6.964;2022-07-30T08:47:01;9.32;;;8.52;;
39218;SDS011;24934;52.752;6.964;2022-07-30T08:49:27;9.10;;;8.48;;
39218;SDS011;24934;52.752;6.964;2022-07-30T08:51:53;10.23;;;9.50;;
39218;SDS011;24934;52.752;6.964;2022-07-30T08:54:20;9.07;;;8.48;;
39218;SDS011;24934;52.752;6.964;2022-07-30T08:56:46;9.00;;;8.40;;
39218;SDS011;24934;52.752;6.964;2022-07-30T08:59:14;9.55;;;8.95;;
39218;SDS011;24934;52.752;6.964;2022-07-30T09:01:41;8.80;;;8.25;;
39218;SDS011;24934;52.752;6.964;2022-07-30T09:04:07;8.98;;;8.38;;
39218;SDS011;24934;52.752;6.964;2022-07-30T09:06:33;8.73;;;8.13;;
39218;SDS011;24934;52.752;6.964;2022-07-30T09:08:59;8.95;;;8.32;;
39218;SDS011;24934;52.752;6.964;2022-07-30T09:11:25;9.57;;;8.98;;
39218;SDS011;24934;52.752;6.964;2022-07-30T09:13:51;9.48;;;8.52;;
39218;SDS011;24934;52.752;6.964;2022-07-30T09:16:24;8.45;;;7.95;;
39218;SDS011;24934;52.752;6.964;2022-07-30T09:18:51;9.18;;;8.57;;
39218;SDS011;24934;52.752;6.964;2022-07-30T09:24:02;8.82;;;8.23;;
39218;SDS011;24934;52.752;6.964;2022-07-30T09:26:29;10.38;;;9.45;;
39218;SDS011;24934;52.752;6.964;2022-07-30T09:29:15;8.43;;;7.93;;
39218;SDS011;24934;52.752;6.964;2022-07-30T09:34:37;9.48;;;8.88;;
39218;SDS011;24934;52.752;6.964;2022-07-30T09:39:39;10.85;;;8.32;;
39218;SDS011;24934;52.752;6.964;2022-07-30T09:42:16;9.57;;;8.88;;
39218;SDS011;24934;52.752;6.964;2022-07-30T09:44:44;8.30;;;7.80;;
39218;SDS011;24934;52.752;6.964;2022-07-30T09:47:32;8.68;;;8.15;;
39218;SDS011;24934;52.752;6.964;2022-07-30T09:50:09;8.20;;;7.60;;
39218;SDS011;24934;52.752;6.964;2022-07-30T09:52:36;8.18;;;7.65;;
39218;SDS011;24934;52.752;6.964;2022-07-30T09:55:03;8.48;;;7.97;;
39218;SDS011;24934;52.752;6.964;2022-07-30T09:57:29;8.40;;;7.90;;
39218;SDS011;24934;52.752;6.964;2022-07-30T10:02:41;8.35;;;7.82;;
39218;SDS011;24934;52.752;6.964;2022-07-30T10:05:14;8.00;;;7.50;;
39218;SDS011;24934;52.752;6.964;2022-07-30T10:07:50;8.30;;;7.80;;
39218;SDS011;24934;52.752;6.964;2022-07-30T10:10:19;8.40;;;7.90;;
39218;SDS011;24934;52.752;6.964;2022-07-30T10:12:49;8.27;;;7.78;;
39218;SDS011;24934;52.752;6.964;2022-07-30T10:15:19;8.05;;;7.55;;
39218;SDS011;24934;52.752;6.964;2022-07-30T10:17:48;8.23;;;7.72;;
39218;SDS011;24934;52.752;6.964;2022-07-30T10:20:14;8.35;;;7.82;;
39218;SDS011;24934;52.752;6.964;2022-07-30T10:22:41;8.32;;;7.82;;
39218;SDS011;24934;52.752;6.964;2022-07-30T10:25:07;9.07;;;8.20;;
39218;SDS011;24934;52.752;6.964;2022-07-30T10:27:36;8.02;;;7.55;;
39218;SDS011;24934;52.752;6.964;2022-07-30T10:30:03;9.38;;;8.77;;
39218;SDS011;24934;52.752;6.964;2022-07-30T10:32:30;9.43;;;8.82;;
39218;SDS011;24934;52.752;6.964;2022-07-30T10:34:56;9.32;;;8.73;;
39218;SDS011;24934;52.752;6.964;2022-07-30T10:37:23;9.20;;;8.65;;
39218;SDS011;24934;52.752;6.964;2022-07-30T10:39:52;10.05;;;9.27;;
39218;SDS011;24934;52.752;6.964;2022-07-30T10:42:39;9.32;;;8.70;;
39218;SDS011;24934;52.752;6.964;2022-07-30T10:45:15;9.32;;;8.73;;
39218;SDS011;24934;52.752;6.964;2022-07-30T10:47:53;15.73;;;9.07;;
39218;SDS011;24934;52.752;6.964;2022-07-30T10:50:21;10.00;;;9.20;;
39218;SDS011;24934;52.752;6.964;2022-07-30T10:52:54;9.63;;;9.02;;
39218;SDS011;24934;52.752;6.964;2022-07-30T11:00:24;8.98;;;8.45;;
39218;SDS011;24934;52.752;6.964;2022-07-30T11:05:39;9.43;;;8.77;;
39218;SDS011;24934;52.752;6.964;2022-07-30T11:10:54;10.10;;;9.40;;
39218;SDS011;24934;52.752;6.964;2022-07-30T11:16:15;9.23;;;8.63;;
39218;SDS011;24934;52.752;6.964;2022-07-30T11:21:41;9.20;;;8.60;;
39218;SDS011;24934;52.752;6.964;2022-07-30T11:24:40;9.40;;;8.60;;
39218;SDS011;24934;52.752;6.964;2022-07-30T11:32:49;8.63;;;8.13;;
39218;SDS011;24934;52.752;6.964;2022-07-30T11:35:15;9.50;;;8.90;;
39218;SDS011;24934;52.752;6.964;2022-07-30T11:40:33;8.35;;;7.85;;
39218;SDS011;24934;52.752;6.964;2022-07-30T11:43:16;8.40;;;7.80;;
39218;SDS011;24934;52.752;6.964;2022-07-30T11:48:33;8.52;;;8.02;;
39218;SDS011;24934;52.752;6.964;2022-07-30T11:51:02;9.32;;;8.73;;
39218;SDS011;24934;52.752;6.964;2022-07-30T11:53:32;9.30;;;8.48;;
39218;SDS011;24934;52.752;6.964;2022-07-30T11:55:59;9.77;;;9.07;;
39218;SDS011;24934;52.752;6.964;2022-07-30T11:58:27;9.10;;;8.50;;
39218;SDS011;24934;52.752;6.964;2022-07-30T12:00:58;9.05;;;8.45;;
39218;SDS011;24934;52.752;6.964;2022-07-30T12:03:33;9.27;;;8.70;;
39218;SDS011;24934;52.752;6.964;2022-07-30T12:06:04;9.32;;;8.63;;
39218;SDS011;24934;52.752;6.964;2022-07-30T12:08:38;8.20;;;7.72;;
39218;SDS011;24934;52.752;6.964;2022-07-30T12:11:05;7.80;;;7.40;;
39218;SDS011;24934;52.752;6.964;2022-07-30T12:13:30;8.23;;;7.72;;
39218;SDS011;24934;52.752;6.964;2022-07-30T12:15:56;9.18;;;8.57;;
39218;SDS011;24934;52.752;6.964;2022-07-30T12:18:23;9.23;;;8.63;;
39218;SDS011;24934;52.752;6.964;2022-07-30T12:20:55;8.70;;;8.20;;
39218;SDS011;24934;52.752;6.964;2022-07-30T12:23:22;8.80;;;8.30;;
39218;SDS011;24934;52.752;6.964;2022-07-30T12:25:49;9.52;;;8.93;;
39218;SDS011;24934;52.752;6.964;2022-07-30T12:28:29;8.90;;;8.40;;
39218;SDS011;24934;52.752;6.964;2022-07-30T12:30:57;8.90;;;8.40;;
39218;SDS011;24934;52.752;6.964;2022-07-30T12:33:24;9.07;;;8.48;;
39218;SDS011;24934;52.752;6.964;2022-07-30T12:35:54;9.88;;;9.27;;
39218;SDS011;24934;52.752;6.964;2022-07-30T12:38:29;9.70;;;9.10;;
39218;SDS011;24934;52.752;6.964;2022-07-30T12:41:09;8.43;;;7.93;;
39218;SDS011;24934;52.752;6.964;2022-07-30T12:43:53;10.45;;;9.65;;
39218;SDS011;24934;52.752;6.964;2022-07-30T12:46:21;9.25;;;8.70;;
39218;SDS011;24934;52.752;6.964;2022-07-30T12:48:51;8.90;;;8.40;;
39218;SDS011;24934;52.752;6.964;2022-07-30T12:51:28;9.20;;;8.70;;
39218;SDS011;24934;52.752;6.964;2022-07-30T12:53:57;8.73;;;8.23;;
39218;SDS011;24934;52.752;6.964;2022-07-30T12:56:25;17.65;;;9.73;;
39218;SDS011;24934;52.752;6.964;2022-07-30T12:58:52;10.40;;;9.70;;
39218;SDS011;24934;52.752;6.964;2022-07-30T13:01:37;9.35;;;8.80;;
39218;SDS011;24934;52.752;6.964;2022-07-30T13:04:07;9.55;;;8.95;;
39218;SDS011;24934;52.752;6.964;2022-07-30T13:06:33;9.23;;;8.63;;
39218;SDS011;24934;52.752;6.964;2022-07-30T13:09:00;8.63;;;8.13;;
39218;SDS011;24934;52.752;6.964;2022-07-30T13:11:39;9.88;;;9.18;;
39218;SDS011;24934;52.752;6.964;2022-07-30T13:14:06;9.35;;;8.75;;
39218;SDS011;24934;52.752;6.964;2022-07-30T13:16:33;9.07;;;8.50;;
39218;SDS011;24934;52.752;6.964;2022-07-30T13:19:01;9.80;;;9.05;;
39218;SDS011;24934;52.752;6.964;2022-07-30T13:21:31;10.23;;;9.63;;
39218;SDS011;24934;52.752;6.964;2022-07-30T13:24:00;12.77;;;9.20;;
39218;SDS011;24934;52.752;6.964;2022-07-30T13:26:29;9.82;;;9.23;;
39218;SDS011;24934;52.752;6.964;2022-07-30T13:28:58;10.82;;;10.13;;
39218;SDS011;24934;52.752;6.964;2022-07-30T13:31:24;8.68;;;8.18;;
39218;SDS011;24934;52.752;6.964;2022-07-30T13:33:51;9.23;;;8.73;;
39218;SDS011;24934;52.752;6.964;2022-07-30T13:36:17;10.02;;;9.35;;
39218;SDS011;24934;52.752;6.964;2022-07-30T13:38:46;8.90;;;8.40;;
39218;SDS011;24934;52.752;6.964;2022-07-30T13:41:12;8.57;;;8.07;;
39218;SDS011;24934;52.752;6.964;2022-07-30T13:43:38;7.40;;;7.00;;
39218;SDS011;24934;52.752;6.964;2022-07-30T13:46:03;8.63;;;8.13;;
39218;SDS011;24934;52.752;6.964;2022-07-30T13:48:30;6.65;;;6.25;;
39218;SDS011;24934;52.752;6.964;2022-07-30T13:51:05;8.63;;;7.95;;
39218;SDS011;24934;52.752;6.964;2022-07-30T13:53:31;10.40;;;8.93;;
39218;SDS011;24934;52.752;6.964;2022-07-30T13:56:00;8.63;;;8.13;;
39218;SDS011;24934;52.752;6.964;2022-07-30T13:58:25;8.00;;;7.50;;
39218;SDS011;24934;52.752;6.964;2022-07-30T14:00:51;8.43;;;7.90;;
39218;SDS011;24934;52.752;6.964;2022-07-30T14:03:17;9.00;;;8.35;;
39218;SDS011;24934;52.752;6.964;2022-07-30T14:05:42;8.85;;;8.35;;
39218;SDS011;24934;52.752;6.964;2022-07-30T14:08:08;9.00;;;8.50;;
39218;SDS011;24934;52.752;6.964;2022-07-30T14:10:35;10.02;;;9.27;;
39218;SDS011;24934;52.752;6.964;2022-07-30T14:13:01;12.25;;;9.38;;
39218;SDS011;24934;52.752;6.964;2022-07-30T14:15:29;9.45;;;8.80;;
39218;SDS011;24934;52.752;6.964;2022-07-30T14:17:55;8.30;;;7.80;;
39218;SDS011;24934;52.752;6.964;2022-07-30T14:20:22;7.00;;;6.60;;
39218;SDS011;24934;52.752;6.964;2022-07-30T14:22:48;7.03;;;6.63;;
39218;SDS011;24934;52.752;6.964;2022-07-30T14:25:14;6.82;;;6.40;;
39218;SDS011;24934;52.752;6.964;2022-07-30T14:27:41;8.15;;;7.65;;
39218;SDS011;24934;52.752;6.964;2022-07-30T14:30:07;7.05;;;6.65;;
39218;SDS011;24934;52.752;6.964;2022-07-30T14:32:34;7.10;;;6.70;;
39218;SDS011;24934;52.752;6.964;2022-07-30T14:35:00;6.68;;;6.28;;
39218;SDS011;24934;52.752;6.964;2022-07-30T14:37:27;6.78;;;6.38;;
39218;SDS011;24934;52.752;6.964;2022-07-30T14:39:53;7.43;;;7.03;;
39218;SDS011;24934;52.752;6.964;2022-07-30T14:42:18;7.22;;;6.82;;
39218;SDS011;24934;52.752;6.964;2022-07-30T14:44:44;7.65;;;7.22;;
39218;SDS011;24934;52.752;6.964;2022-07-30T14:47:11;6.50;;;6.10;;
39218;SDS011;24934;52.752;6.964;2022-07-30T14:49:37;6.00;;;5.70;;
39218;SDS011;24934;52.752;6.964;2022-07-30T14:52:03;4.90;;;4.60;;
39218;SDS011;24934;52.752;6.964;2022-07-30T14:54:29;4.95;;;4.65;;
39218;SDS011;24934;52.752;6.964;2022-07-30T14:56:55;6.25;;;5.88;;
39218;SDS011;24934;52.752;6.964;2022-07-30T14:59:21;6.82;;;6.32;;
39218;SDS011;24934;52.752;6.964;2022-07-30T15:01:46;6.90;;;6.50;;
39218;SDS011;24934;52.752;6.964;2022-07-30T15:04:15;7.00;;;6.50;;
39218;SDS011;24934;52.752;6.964;2022-07-30T15:06:41;6.80;;;6.40;;
39218;SDS011;24934;52.752;6.964;2022-07-30T15:09:16;6.75;;;6.35;;
39218;SDS011;24934;52.752;6.964;2022-07-30T15:11:48;6.90;;;6.50;;
39218;SDS011;24934;52.752;6.964;2022-07-30T15:14:14;5.68;;;5.38;;
39218;SDS011;24934;52.752;6.964;2022-07-30T15:16:42;6.70;;;6.30;;
39218;SDS011;24934;52.752;6.964;2022-07-30T15:19:07;6.65;;;6.25;;
39218;SDS011;24934;52.752;6.964;2022-07-30T15:21:37;6.50;;;6.10;;
39218;SDS011;24934;52.752;6.964;2022-07-30T15:24:03;6.03;;;5.70;;
39218;SDS011;24934;52.752;6.964;2022-07-30T15:26:29;5.97;;;5.68;;